createdAt,value
2022-09-20T00:08:59.814Z,25.73
2022-09-20T00:24:02.159Z,24.39
2022-09-20T00:39:04.376Z,23.82
2022-09-20T00:54:06.629Z,23.23
2022-09-20T01:09:08.839Z,22.66
2022-09-20T01:24:11.051Z,22.47
2022-09-20T01:39:13.246Z,21.16
2022-09-20T01:54:15.499Z,20.7
2022-09-20T02:09:17.693Z,20.01
2022-09-20T02:24:19.910Z,19.87
2022-09-20T02:39:22.240Z,19.41
2022-09-20T02:54:24.498Z,18.56
2022-09-20T03:09:26.765Z,18.21
2022-09-20T03:24:29.008Z,18.06
2022-09-20T03:39:31.441Z,16.88
2022-09-20T03:54:33.750Z,16.59
2022-09-20T04:09:35.978Z,16.69
2022-09-20T04:24:38.234Z,16.29
2022-09-20T04:39:40.785Z,15.47
2022-09-20T04:54:43.542Z,15.71
2022-09-20T05:09:45.788Z,15.34
2022-09-20T05:24:48.104Z,15.04
2022-09-20T05:39:50.448Z,14.9
2022-09-20T05:54:52.700Z,14.81
2022-09-20T06:09:55.187Z,14.68
2022-09-20T06:24:57.408Z,14.42
2022-09-20T06:39:59.910Z,14.48
2022-09-20T06:55:02.214Z,14.25
2022-09-20T07:10:04.491Z,13.29
2022-09-20T07:25:06.683Z,13.93
2022-09-20T07:40:08.899Z,13.73
2022-09-20T07:55:11.341Z,13.96
2022-09-20T08:10:13.596Z,13.64
2022-09-20T08:25:15.997Z,13.24
2022-09-20T08:40:18.277Z,12.97
2022-09-20T08:55:20.741Z,13.21
2022-09-20T09:10:22.936Z,13
2022-09-20T09:25:25.159Z,12.19
2022-09-20T09:40:27.483Z,12.06
2022-09-20T09:55:29.865Z,11.9
2022-09-20T10:10:32.255Z,12.05
2022-09-20T10:25:34.560Z,12.14
2022-09-20T10:40:36.882Z,11.98
2022-09-20T10:55:39.244Z,11.59
2022-09-20T11:10:41.461Z,11.43
2022-09-20T11:25:43.711Z,11.53
2022-09-20T11:40:46.147Z,11.35
2022-09-20T11:55:48.411Z,10.97
2022-09-20T12:10:50.618Z,11.2
2022-09-20T12:25:52.901Z,10.69
2022-09-20T12:40:55.354Z,10.82
2022-09-20T12:55:57.416Z,11.19
2022-09-20T13:10:59.643Z,11.05
2022-09-20T13:26:01.872Z,10.72
2022-09-20T13:41:04.382Z,10.75
2022-09-20T13:56:06.618Z,10.72
2022-09-20T14:11:08.977Z,10.98
2022-09-20T14:26:11.499Z,10.68
2022-09-20T14:41:14.323Z,16.16
2022-09-20T14:56:16.565Z,15.63
2022-09-20T15:11:18.857Z,13.47
2022-09-20T15:26:21.121Z,13.12
2022-09-20T15:41:25.984Z,17.29
2022-09-20T15:56:30.355Z,17.41
2022-09-20T16:11:32.610Z,16.09
2022-09-20T16:26:34.809Z,17.71
2022-09-20T16:41:37.067Z,18.11
2022-09-20T16:56:39.330Z,17.71
2022-09-20T17:11:41.540Z,17.58
2022-09-20T17:26:43.849Z,21.34
2022-09-20T17:41:46.036Z,22.6
2022-09-20T17:56:48.357Z,23.3
2022-09-20T18:11:50.600Z,21.95
2022-09-20T18:26:53.017Z,20.9
2022-09-20T18:41:55.286Z,21.09
2022-09-20T18:56:57.725Z,21.17
2022-09-20T19:12:00.025Z,21.48
2022-09-20T19:27:02.237Z,21.61
2022-09-20T19:42:04.454Z,22.8
2022-09-20T19:57:06.701Z,23.76
2022-09-20T20:12:08.950Z,24.82
2022-09-20T20:27:11.343Z,25.27
2022-09-20T20:42:13.595Z,25.34
2022-09-20T20:57:15.838Z,25.66
2022-09-20T21:12:18.175Z,25.83
2022-09-20T21:27:20.429Z,26.05
2022-09-20T21:42:22.647Z,25.8
2022-09-20T21:57:24.863Z,25.89
2022-09-20T22:12:27.193Z,26.12
2022-09-20T22:27:29.426Z,26.3
2022-09-20T22:42:31.665Z,26.29
2022-09-20T22:57:33.883Z,26.05
2022-09-20T23:12:36.117Z,25.6
2022-09-20T23:27:38.355Z,25.25
2022-09-20T23:42:40.622Z,25.11
2022-09-20T23:57:42.832Z,24.58
